Anchor Point, AK (99556)

7:58 AM AKDT on September 02, 2014 (GMT -0800)
KAKHOMER5 | Change Station
CLOSE
Current Station
Personal Weather Station
Location: Homer, AK
Elevation: 1152 ft
Nearby Weather Stations

Elev 1152 ft 59.67 °N, 151.49 °W | Updated 15 seconds ago

Scattered Clouds
Scattered Clouds
50.4 °F
Feels Like 50.4 °F
N
7.0
Wind Variable Wind from SSW
Gusts 18.0 mph

Today
High -- | Low -- °F
--% Chance of Precip.
Yesterday
High -- | Low -- °F
Precip. -- in
7:05 AM 9:06 PM
First Quarter, 52% visible
Pressure 29.99 in
Visibility 10.0 miles
Clouds Scattered Clouds 3900 ft
Dew Point 48 °F
Humidity 92%
Rainfall 0.00 in
Snow Depth 1 in
UV 0 out of 12
Pollen Not available.
Air Quality Not available.
Flu Activity Not available.
METAR PAHO 021553Z 25015G21KT 10SM SCT039 14/08 A2998 RMK AO2 SLP153 T01440083

More Conditions Fewer Conditions

Pressure 29.99 in
Visibility 10.0 miles
Clouds Scattered Clouds 3900 ft
Dew Point 48 °F
Humidity 92%
Rainfall 0.00 in
Snow Depth 1 in
UV 0 out of 12
Pollen Not available.
Air Quality Not available.
Flu Activity Not available.
METAR PAHO 021553Z 25015G21KT 10SM SCT039 14/08 A2998 RMK AO2 SLP153 T01440083

More Conditions Fewer Conditions

10-Day Weather Forecast

Almanac

Astronomy

Sep. 02, 2014 Rise Set
Actual Time 7:05 AM AKDT 9:06 PM AKDT
Civil Twilight 6:21 AM AKDT 9:50 PM AKDT
Nautical Twilight 5:23 AM AKDT 10:46 PM AKDT
Astronomical Twilight 4:11 AM AKDT 11:57 PM AKDT
Moon 4:48 PM AKDT No Moon Set
Length of Visible Light 15h 29m
Length of Day
14h 00m
Tomorrow will be 5m 19s shorter.
First Quarter, 52% of the Moon is Illuminated
Today
First Quarter
Sep 8
Full
Sep 15
Last Quarter
Sep 24
New
Oct 1
First Quarter

Today's Extremes

State Highs State Lows

Community

WunderPhotos

Upload Photos

1,749,705 photos uploaded!

Nearby

Snow Depth

Station Depth Elevation
Mcneil Canyon 1 in 1320 ft
Port Graham 0 in 300 ft
MF Bradley River 1 in 2300 ft
Nuka Glacier 25 in 1250 ft
Cooper Lake 10 in 1200 ft

Earthquake Activity

City Distance Mag. Time & Date
No recent earthquake activity has been reported nearby.
Minimum magnitude displayed is 2.5.

Coastal Water Temperatures

Place Temperature
No Stations Reporting

Nearby Weather Stations